sensor_id;sensor_type;location;lat;lon;timestamp;P1;durP1;ratioP1;P2;durP2;ratioP2
52786;SDS011;38661;53.152;5.846;2023-04-01T00:02:01;8.73;;;6.65;;
52786;SDS011;38661;53.152;5.846;2023-04-01T00:04:26;10.57;;;8.15;;
52786;SDS011;38661;53.152;5.846;2023-04-01T00:06:52;9.90;;;7.55;;
52786;SDS011;38661;53.152;5.846;2023-04-01T00:09:18;10.30;;;7.95;;
52786;SDS011;38661;53.152;5.846;2023-04-01T00:11:44;11.75;;;8.32;;
52786;SDS011;38661;53.152;5.846;2023-04-01T00:14:10;8.75;;;6.72;;
52786;SDS011;38661;53.152;5.846;2023-04-01T00:16:36;10.60;;;7.40;;
52786;SDS011;38661;53.152;5.846;2023-04-01T00:19:02;10.48;;;8.35;;
52786;SDS011;38661;53.152;5.846;2023-04-01T00:21:28;10.10;;;7.75;;
52786;SDS011;38661;53.152;5.846;2023-04-01T00:23:54;10.57;;;7.85;;
52786;SDS011;38661;53.152;5.846;2023-04-01T00:26:19;9.73;;;7.25;;
52786;SDS011;38661;53.152;5.846;2023-04-01T00:28:47;9.70;;;8.10;;
52786;SDS011;38661;53.152;5.846;2023-04-01T00:31:13;9.15;;;7.60;;
52786;SDS011;38661;53.152;5.846;2023-04-01T00:33:39;10.63;;;8.98;;
52786;SDS011;38661;53.152;5.846;2023-04-01T00:36:07;9.35;;;8.07;;
52786;SDS011;38661;53.152;5.846;2023-04-01T00:38:33;9.73;;;7.85;;
52786;SDS011;38661;53.152;5.846;2023-04-01T00:40:59;12.05;;;9.18;;
52786;SDS011;38661;53.152;5.846;2023-04-01T00:43:25;10.90;;;9.02;;
52786;SDS011;38661;53.152;5.846;2023-04-01T00:45:51;8.85;;;7.57;;
52786;SDS011;38661;53.152;5.846;2023-04-01T00:48:18;11.07;;;8.80;;
52786;SDS011;38661;53.152;5.846;2023-04-01T00:50:49;10.57;;;8.70;;
52786;SDS011;38661;53.152;5.846;2023-04-01T00:53:20;11.80;;;8.68;;
52786;SDS011;38661;53.152;5.846;2023-04-01T00:55:58;12.43;;;9.90;;
52786;SDS011;38661;53.152;5.846;2023-04-01T00:58:29;12.20;;;8.80;;
52786;SDS011;38661;53.152;5.846;2023-04-01T01:00:58;11.00;;;8.75;;
52786;SDS011;38661;53.152;5.846;2023-04-01T01:03:25;13.13;;;9.27;;
52786;SDS011;38661;53.152;5.846;2023-04-01T01:08:43;12.88;;;10.05;;
52786;SDS011;38661;53.152;5.846;2023-04-01T01:11:12;11.07;;;8.63;;
52786;SDS011;38661;53.152;5.846;2023-04-01T01:13:54;9.70;;;8.32;;
52786;SDS011;38661;53.152;5.846;2023-04-01T01:16:29;7.68;;;6.78;;
52786;SDS011;38661;53.152;5.846;2023-04-01T01:27:10;10.73;;;8.38;;
52786;SDS011;38661;53.152;5.846;2023-04-01T01:39:58;11.52;;;8.40;;
52786;SDS011;38661;53.152;5.846;2023-04-01T01:42:26;9.73;;;7.78;;
52786;SDS011;38661;53.152;5.846;2023-04-01T01:44:55;11.48;;;8.48;;
52786;SDS011;38661;53.152;5.846;2023-04-01T01:47:24;8.57;;;7.68;;
52786;SDS011;38661;53.152;5.846;2023-04-01T01:49:52;13.05;;;9.23;;
52786;SDS011;38661;53.152;5.846;2023-04-01T01:52:19;8.35;;;6.90;;
52786;SDS011;38661;53.152;5.846;2023-04-01T01:54:50;12.82;;;9.68;;
52786;SDS011;38661;53.152;5.846;2023-04-01T01:57:19;12.35;;;8.07;;
52786;SDS011;38661;53.152;5.846;2023-04-01T01:59:52;12.07;;;9.20;;
52786;SDS011;38661;53.152;5.846;2023-04-01T02:02:22;9.25;;;7.68;;
52786;SDS011;38661;53.152;5.846;2023-04-01T02:04:48;8.45;;;6.88;;
52786;SDS011;38661;53.152;5.846;2023-04-01T02:07:22;11.07;;;8.52;;
52786;SDS011;38661;53.152;5.846;2023-04-01T02:09:52;8.43;;;6.93;;
52786;SDS011;38661;53.152;5.846;2023-04-01T02:12:18;9.60;;;6.80;;
52786;SDS011;38661;53.152;5.846;2023-04-01T02:17:37;11.02;;;8.02;;
52786;SDS011;38661;53.152;5.846;2023-04-01T02:20:09;10.52;;;8.23;;
52786;SDS011;38661;53.152;5.846;2023-04-01T02:22:43;10.65;;;8.82;;
52786;SDS011;38661;53.152;5.846;2023-04-01T02:25:14;9.27;;;7.50;;
52786;SDS011;38661;53.152;5.846;2023-04-01T02:27:43;12.30;;;9.50;;
52786;SDS011;38661;53.152;5.846;2023-04-01T02:30:10;8.50;;;7.40;;
52786;SDS011;38661;53.152;5.846;2023-04-01T02:32:37;11.57;;;8.90;;
52786;SDS011;38661;53.152;5.846;2023-04-01T02:35:08;14.52;;;10.65;;
52786;SDS011;38661;53.152;5.846;2023-04-01T02:37:37;8.45;;;6.30;;
52786;SDS011;38661;53.152;5.846;2023-04-01T02:40:04;10.82;;;8.20;;
52786;SDS011;38661;53.152;5.846;2023-04-01T02:42:32;9.60;;;8.00;;
52786;SDS011;38661;53.152;5.846;2023-04-01T02:44:58;13.07;;;9.93;;
52786;SDS011;38661;53.152;5.846;2023-04-01T02:47:24;14.00;;;9.38;;
52786;SDS011;38661;53.152;5.846;2023-04-01T02:49:50;9.05;;;7.65;;
52786;SDS011;38661;53.152;5.846;2023-04-01T02:52:16;12.23;;;9.88;;
52786;SDS011;38661;53.152;5.846;2023-04-01T02:54:41;10.88;;;8.68;;
52786;SDS011;38661;53.152;5.846;2023-04-01T02:57:07;10.10;;;8.30;;
52786;SDS011;38661;53.152;5.846;2023-04-01T02:59:33;11.23;;;9.38;;
52786;SDS011;38661;53.152;5.846;2023-04-01T03:01:58;11.13;;;8.77;;
52786;SDS011;38661;53.152;5.846;2023-04-01T03:04:24;9.65;;;7.82;;
52786;SDS011;38661;53.152;5.846;2023-04-01T03:06:50;10.93;;;8.43;;
52786;SDS011;38661;53.152;5.846;2023-04-01T03:09:16;13.23;;;9.25;;
52786;SDS011;38661;53.152;5.846;2023-04-01T03:11:42;13.05;;;10.48;;
52786;SDS011;38661;53.152;5.846;2023-04-01T03:14:07;13.68;;;8.70;;
52786;SDS011;38661;53.152;5.846;2023-04-01T03:16:33;12.68;;;9.38;;
52786;SDS011;38661;53.152;5.846;2023-04-01T03:18:59;12.98;;;8.57;;
52786;SDS011;38661;53.152;5.846;2023-04-01T03:21:26;10.35;;;8.10;;
52786;SDS011;38661;53.152;5.846;2023-04-01T03:23:52;13.00;;;10.15;;
52786;SDS011;38661;53.152;5.846;2023-04-01T03:26:18;13.23;;;10.02;;
52786;SDS011;38661;53.152;5.846;2023-04-01T03:28:45;10.90;;;8.60;;
52786;SDS011;38661;53.152;5.846;2023-04-01T03:31:10;12.07;;;9.73;;
52786;SDS011;38661;53.152;5.846;2023-04-01T03:33:36;13.57;;;9.90;;
52786;SDS011;38661;53.152;5.846;2023-04-01T03:36:02;11.25;;;9.27;;
52786;SDS011;38661;53.152;5.846;2023-04-01T03:38:31;10.80;;;8.95;;
52786;SDS011;38661;53.152;5.846;2023-04-01T03:40:58;11.63;;;9.18;;
52786;SDS011;38661;53.152;5.846;2023-04-01T03:43:24;10.40;;;7.90;;
52786;SDS011;38661;53.152;5.846;2023-04-01T03:45:50;13.98;;;10.93;;
52786;SDS011;38661;53.152;5.846;2023-04-01T03:48:16;10.90;;;8.20;;
52786;SDS011;38661;53.152;5.846;2023-04-01T03:50:43;14.20;;;10.18;;
52786;SDS011;38661;53.152;5.846;2023-04-01T03:53:09;14.32;;;10.45;;
52786;SDS011;38661;53.152;5.846;2023-04-01T03:55:35;14.73;;;9.77;;
52786;SDS011;38661;53.152;5.846;2023-04-01T03:58:02;12.90;;;9.07;;
52786;SDS011;38661;53.152;5.846;2023-04-01T04:00:29;11.95;;;8.98;;
52786;SDS011;38661;53.152;5.846;2023-04-01T04:02:55;17.52;;;10.98;;
52786;SDS011;38661;53.152;5.846;2023-04-01T04:05:22;11.23;;;9.43;;
52786;SDS011;38661;53.152;5.846;2023-04-01T04:07:51;12.18;;;8.70;;
52786;SDS011;38661;53.152;5.846;2023-04-01T04:10:17;11.27;;;9.43;;
52786;SDS011;38661;53.152;5.846;2023-04-01T04:12:43;12.82;;;9.15;;
52786;SDS011;38661;53.152;5.846;2023-04-01T04:15:09;13.05;;;10.02;;
52786;SDS011;38661;53.152;5.846;2023-04-01T04:17:35;10.80;;;8.20;;
52786;SDS011;38661;53.152;5.846;2023-04-01T04:20:01;14.02;;;9.45;;
52786;SDS011;38661;53.152;5.846;2023-04-01T04:22:27;19.63;;;12.57;;
52786;SDS011;38661;53.152;5.846;2023-04-01T04:24:53;14.35;;;10.43;;
52786;SDS011;38661;53.152;5.846;2023-04-01T04:27:18;12.82;;;9.77;;
52786;SDS011;38661;53.152;5.846;2023-04-01T04:29:44;17.45;;;10.90;;
52786;SDS011;38661;53.152;5.846;2023-04-01T04:32:10;13.80;;;10.48;;
52786;SDS011;38661;53.152;5.846;2023-04-01T04:34:36;16.67;;;11.57;;
52786;SDS011;38661;53.152;5.846;2023-04-01T04:37:02;13.20;;;9.65;;
52786;SDS011;38661;53.152;5.846;2023-04-01T04:39:28;15.50;;;11.35;;
52786;SDS011;38661;53.152;5.846;2023-04-01T04:41:54;11.52;;;9.40;;
52786;SDS011;38661;53.152;5.846;2023-04-01T04:44:20;13.90;;;10.52;;
52786;SDS011;38661;53.152;5.846;2023-04-01T04:46:45;14.82;;;10.95;;
52786;SDS011;38661;53.152;5.846;2023-04-01T04:49:11;13.88;;;9.82;;
52786;SDS011;38661;53.152;5.846;2023-04-01T04:51:37;16.02;;;11.68;;
52786;SDS011;38661;53.152;5.846;2023-04-01T04:54:03;18.20;;;12.63;;
52786;SDS011;38661;53.152;5.846;2023-04-01T04:56:30;16.73;;;10.75;;
52786;SDS011;38661;53.152;5.846;2023-04-01T04:58:56;17.58;;;12.55;;
52786;SDS011;38661;53.152;5.846;2023-04-01T05:01:22;14.68;;;11.05;;
52786;SDS011;38661;53.152;5.846;2023-04-01T05:03:48;18.27;;;12.35;;
52786;SDS011;38661;53.152;5.846;2023-04-01T05:06:14;17.83;;;13.15;;
52786;SDS011;38661;53.152;5.846;2023-04-01T05:08:40;17.00;;;12.10;;
52786;SDS011;38661;53.152;5.846;2023-04-01T05:11:17;19.50;;;12.68;;
52786;SDS011;38661;53.152;5.846;2023-04-01T05:13:45;16.48;;;11.30;;
52786;SDS011;38661;53.152;5.846;2023-04-01T05:16:12;20.25;;;12.80;;
52786;SDS011;38661;53.152;5.846;2023-04-01T05:18:43;16.63;;;11.77;;
52786;SDS011;38661;53.152;5.846;2023-04-01T05:21:09;19.35;;;13.32;;
52786;SDS011;38661;53.152;5.846;2023-04-01T05:23:36;22.38;;;14.90;;
52786;SDS011;38661;53.152;5.846;2023-04-01T05:26:03;20.25;;;12.45;;
52786;SDS011;38661;53.152;5.846;2023-04-01T05:28:33;16.08;;;11.65;;
52786;SDS011;38661;53.152;5.846;2023-04-01T05:31:00;15.93;;;11.80;;
52786;SDS011;38661;53.152;5.846;2023-04-01T05:33:26;18.38;;;11.95;;
52786;SDS011;38661;53.152;5.846;2023-04-01T05:35:53;21.20;;;15.55;;
52786;SDS011;38661;53.152;5.846;2023-04-01T05:38:19;14.85;;;12.20;;
52786;SDS011;38661;53.152;5.846;2023-04-01T05:40:45;16.83;;;12.55;;
52786;SDS011;38661;53.152;5.846;2023-04-01T05:43:11;19.55;;;13.57;;
52786;SDS011;38661;53.152;5.846;2023-04-01T05:45:37;15.43;;;11.48;;
52786;SDS011;38661;53.152;5.846;2023-04-01T05:48:03;20.27;;;13.50;;
52786;SDS011;38661;53.152;5.846;2023-04-01T05:50:28;22.02;;;13.60;;
52786;SDS011;38661;53.152;5.846;2023-04-01T05:52:54;19.98;;;13.43;;
52786;SDS011;38661;53.152;5.846;2023-04-01T05:55:21;21.48;;;13.95;;
52786;SDS011;38661;53.152;5.846;2023-04-01T05:57:46;16.95;;;12.93;;
52786;SDS011;38661;53.152;5.846;2023-04-01T06:00:14;22.17;;;15.70;;
52786;SDS011;38661;53.152;5.846;2023-04-01T06:02:40;22.65;;;15.13;;
52786;SDS011;38661;53.152;5.846;2023-04-01T06:05:12;18.63;;;14.50;;
52786;SDS011;38661;53.152;5.846;2023-04-01T06:07:46;22.77;;;16.20;;
52786;SDS011;38661;53.152;5.846;2023-04-01T06:10:14;18.23;;;12.88;;
52786;SDS011;38661;53.152;5.846;2023-04-01T06:18:39;18.65;;;13.73;;
52786;SDS011;38661;53.152;5.846;2023-04-01T06:21:59;19.88;;;14.30;;
52786;SDS011;38661;53.152;5.846;2023-04-01T06:43:29;19.27;;;13.73;;
52786;SDS011;38661;53.152;5.846;2023-04-01T06:51:08;16.95;;;13.07;;
52786;SDS011;38661;53.152;5.846;2023-04-01T06:53:55;18.20;;;12.77;;
52786;SDS011;38661;53.152;5.846;2023-04-01T06:56:30;17.27;;;12.43;;
52786;SDS011;38661;53.152;5.846;2023-04-01T06:58:59;18.00;;;12.32;;
52786;SDS011;38661;53.152;5.846;2023-04-01T07:01:37;16.50;;;12.30;;
52786;SDS011;38661;53.152;5.846;2023-04-01T07:04:17;16.00;;;11.68;;
52786;SDS011;38661;53.152;5.846;2023-04-01T07:06:54;19.35;;;12.77;;
52786;SDS011;38661;53.152;5.846;2023-04-01T07:09:52;17.33;;;11.43;;
52786;SDS011;38661;53.152;5.846;2023-04-01T07:14:56;16.08;;;11.70;;
52786;SDS011;38661;53.152;5.846;2023-04-01T07:17:31;19.70;;;13.07;;
52786;SDS011;38661;53.152;5.846;2023-04-01T07:20:03;17.45;;;12.02;;
52786;SDS011;38661;53.152;5.846;2023-04-01T07:22:41;17.85;;;12.05;;
52786;SDS011;38661;53.152;5.846;2023-04-01T07:25:15;18.83;;;13.15;;
52786;SDS011;38661;53.152;5.846;2023-04-01T07:27:43;16.50;;;12.00;;
52786;SDS011;38661;53.152;5.846;2023-04-01T07:30:21;18.70;;;12.88;;
52786;SDS011;38661;53.152;5.846;2023-04-01T07:46:21;15.77;;;12.15;;
52786;SDS011;38661;53.152;5.846;2023-04-01T07:49:10;21.80;;;14.55;;
52786;SDS011;38661;53.152;5.846;2023-04-01T07:57:19;16.27;;;12.23;;
52786;SDS011;38661;53.152;5.846;2023-04-01T08:05:55;20.08;;;13.65;;
52786;SDS011;38661;53.152;5.846;2023-04-01T08:08:45;19.08;;;13.10;;
52786;SDS011;38661;53.152;5.846;2023-04-01T08:14:09;22.73;;;14.88;;
52786;SDS011;38661;53.152;5.846;2023-04-01T08:22:02;27.70;;;15.45;;
52786;SDS011;38661;53.152;5.846;2023-04-01T08:30:04;16.75;;;11.13;;
52786;SDS011;38661;53.152;5.846;2023-04-01T08:32:35;20.95;;;12.15;;
52786;SDS011;38661;53.152;5.846;2023-04-01T08:35:09;18.20;;;10.75;;
52786;SDS011;38661;53.152;5.846;2023-04-01T08:37:49;15.93;;;10.75;;
52786;SDS011;38661;53.152;5.846;2023-04-01T08:46:06;14.95;;;9.60;;
52786;SDS011;38661;53.152;5.846;2023-04-01T08:51:30;13.30;;;8.30;;
52786;SDS011;38661;53.152;5.846;2023-04-01T09:05:47;12.52;;;6.95;;
52786;SDS011;38661;53.152;5.846;2023-04-01T09:08:51;10.00;;;6.00;;
52786;SDS011;38661;53.152;5.846;2023-04-01T09:14:50;8.53;;;5.63;;
52786;SDS011;38661;53.152;5.846;2023-04-01T09:17:36;8.45;;;5.50;;
52786;SDS011;38661;53.152;5.846;2023-04-01T09:31:17;9.60;;;5.80;;
52786;SDS011;38661;53.152;5.846;2023-04-01T09:33:58;10.40;;;6.50;;
52786;SDS011;38661;53.152;5.846;2023-04-01T09:37:16;6.45;;;4.75;;
52786;SDS011;38661;53.152;5.846;2023-04-01T09:42:22;7.22;;;4.35;;
52786;SDS011;38661;53.152;5.846;2023-04-01T09:50:29;4.07;;;3.17;;
52786;SDS011;38661;53.152;5.846;2023-04-01T09:59:14;6.70;;;3.90;;
52786;SDS011;38661;53.152;5.846;2023-04-01T10:07:56;5.50;;;4.07;;
52786;SDS011;38661;53.152;5.846;2023-04-01T10:13:18;9.27;;;5.30;;
52786;SDS011;38661;53.152;5.846;2023-04-01T10:16:14;5.28;;;4.07;;
52786;SDS011;38661;53.152;5.846;2023-04-01T10:18:56;8.30;;;4.53;;
52786;SDS011;38661;53.152;5.846;2023-04-01T10:32:13;6.18;;;3.97;;
52786;SDS011;38661;53.152;5.846;2023-04-01T10:35:09;5.32;;;3.72;;
52786;SDS011;38661;53.152;5.846;2023-04-01T10:46:21;6.30;;;3.92;;
52786;SDS011;38661;53.152;5.846;2023-04-01T11:31:30;5.95;;;4.05;;
52786;SDS011;38661;53.152;5.846;2023-04-01T11:34:12;5.85;;;3.58;;
52786;SDS011;38661;53.152;5.846;2023-04-01T11:42:28;6.20;;;3.83;;
52786;SDS011;38661;53.152;5.846;2023-04-01T11:45:23;4.35;;;3.20;;
52786;SDS011;38661;53.152;5.846;2023-04-01T11:50:44;3.90;;;2.70;;
52786;SDS011;38661;53.152;5.846;2023-04-01T12:04:44;4.05;;;2.95;;
52786;SDS011;38661;53.152;5.846;2023-04-01T12:15:34;2.50;;;2.25;;
52786;SDS011;38661;53.152;5.846;2023-04-01T12:26:12;4.32;;;3.08;;
52786;SDS011;38661;53.152;5.846;2023-04-01T12:31:46;3.28;;;2.88;;
52786;SDS011;38661;53.152;5.846;2023-04-01T12:35:04;4.10;;;3.70;;
52786;SDS011;38661;53.152;5.846;2023-04-01T12:38:10;4.82;;;3.30;;
52786;SDS011;38661;53.152;5.846;2023-04-01T12:43:36;3.58;;;2.63;;
52786;SDS011;38661;53.152;5.846;2023-04-01T12:46:40;5.18;;;3.10;;
52786;SDS011;38661;53.152;5.846;2023-04-01T12:57:32;3.30;;;2.40;;
52786;SDS011;38661;53.152;5.846;2023-04-01T13:00:24;3.40;;;2.28;;
52786;SDS011;38661;53.152;5.846;2023-04-01T13:16:11;3.08;;;2.25;;
52786;SDS011;38661;53.152;5.846;2023-04-01T13:21:20;3.55;;;2.63;;
52786;SDS011;38661;53.152;5.846;2023-04-01T13:29:20;4.43;;;2.97;;
52786;SDS011;38661;53.152;5.846;2023-04-01T13:41:10;3.00;;;2.38;;
52786;SDS011;38661;53.152;5.846;2023-04-01T13:49:29;4.93;;;2.80;;
52786;SDS011;38661;53.152;5.846;2023-04-01T14:11:35;2.53;;;1.90;;
52786;SDS011;38661;53.152;5.846;2023-04-01T14:17:17;2.35;;;1.77;;
52786;SDS011;38661;53.152;5.846;2023-04-01T14:19:59;2.55;;;2.13;;
52786;SDS011;38661;53.152;5.846;2023-04-01T14:22:46;2.40;;;1.60;;
52786;SDS011;38661;53.152;5.846;2023-04-01T14:25:46;3.20;;;1.90;;
52786;SDS011;38661;53.152;5.846;2023-04-01T14:28:53;3.25;;;2.00;;
52786;SDS011;38661;53.152;5.846;2023-04-01T14:37:15;2.78;;;2.10;;
52786;SDS011;38661;53.152;5.846;2023-04-01T14:47:56;2.67;;;1.58;;
52786;SDS011;38661;53.152;5.846;2023-04-01T14:50:30;2.35;;;1.65;;
52786;SDS011;38661;53.152;5.846;2023-04-01T14:53:23;2.30;;;1.63;;
52786;SDS011;38661;53.152;5.846;2023-04-01T14:55:51;3.25;;;1.55;;
52786;SDS011;38661;53.152;5.846;2023-04-01T14:58:20;2.60;;;1.50;;
52786;SDS011;38661;53.152;5.846;2023-04-01T15:24:34;3.53;;;2.03;;
52786;SDS011;38661;53.152;5.846;2023-04-01T15:26:53;2.25;;;1.90;;
52786;SDS011;38661;53.152;5.846;2023-04-01T15:29:43;2.55;;;1.90;;
52786;SDS011;38661;53.152;5.846;2023-04-01T15:43:53;5.35;;;3.03;;
52786;SDS011;38661;53.152;5.846;2023-04-01T15:46:25;5.93;;;2.70;;
52786;SDS011;38661;53.152;5.846;2023-04-01T15:49:45;6.22;;;3.20;;
52786;SDS011;38661;53.152;5.846;2023-04-01T15:52:14;6.40;;;3.25;;
52786;SDS011;38661;53.152;5.846;2023-04-01T15:57:54;5.07;;;3.42;;
52786;SDS011;38661;53.152;5.846;2023-04-01T16:06:08;4.43;;;3.22;;
52786;SDS011;38661;53.152;5.846;2023-04-01T16:14:11;5.80;;;3.20;;
52786;SDS011;38661;53.152;5.846;2023-04-01T16:17:05;5.95;;;3.88;;
52786;SDS011;38661;53.152;5.846;2023-04-01T16:23:14;7.53;;;4.63;;
52786;SDS011;38661;53.152;5.846;2023-04-01T16:25:46;12.18;;;7.15;;
52786;SDS011;38661;53.152;5.846;2023-04-01T16:31:15;7.40;;;4.45;;
52786;SDS011;38661;53.152;5.846;2023-04-01T16:36:54;8.40;;;5.05;;
52786;SDS011;38661;53.152;5.846;2023-04-01T16:39:46;8.05;;;4.65;;
52786;SDS011;38661;53.152;5.846;2023-04-01T16:42:26;8.23;;;6.05;;
52786;SDS011;38661;53.152;5.846;2023-04-01T16:47:53;11.10;;;5.28;;
52786;SDS011;38661;53.152;5.846;2023-04-01T16:55:33;13.35;;;5.88;;
52786;SDS011;38661;53.152;5.846;2023-04-01T16:58:24;7.53;;;5.45;;
52786;SDS011;38661;53.152;5.846;2023-04-01T17:00:59;8.30;;;5.55;;
52786;SDS011;38661;53.152;5.846;2023-04-01T17:03:43;6.05;;;5.15;;
52786;SDS011;38661;53.152;5.846;2023-04-01T17:11:28;8.63;;;5.57;;
52786;SDS011;38661;53.152;5.846;2023-04-01T17:36:12;10.85;;;5.93;;
52786;SDS011;38661;53.152;5.846;2023-04-01T17:39:09;9.65;;;6.18;;
52786;SDS011;38661;53.152;5.846;2023-04-01T18:00:18;10.82;;;6.60;;
52786;SDS011;38661;53.152;5.846;2023-04-01T18:06:14;11.70;;;5.63;;
52786;SDS011;38661;53.152;5.846;2023-04-01T18:08:59;13.48;;;7.18;;
52786;SDS011;38661;53.152;5.846;2023-04-01T18:17:23;9.15;;;5.63;;
52786;SDS011;38661;53.152;5.846;2023-04-01T18:20:28;9.75;;;6.10;;
52786;SDS011;38661;53.152;5.846;2023-04-01T18:22:57;8.13;;;5.28;;
52786;SDS011;38661;53.152;5.846;2023-04-01T18:25:39;7.53;;;5.15;;
52786;SDS011;38661;53.152;5.846;2023-04-01T18:30:58;8.63;;;5.20;;
52786;SDS011;38661;53.152;5.846;2023-04-01T18:36:28;9.13;;;5.63;;
52786;SDS011;38661;53.152;5.846;2023-04-01T18:39:18;10.55;;;5.65;;
52786;SDS011;38661;53.152;5.846;2023-04-01T18:42:00;10.27;;;5.63;;
52786;SDS011;38661;53.152;5.846;2023-04-01T18:44:50;12.30;;;5.93;;
52786;SDS011;38661;53.152;5.846;2023-04-01T18:50:02;9.65;;;5.93;;
52786;SDS011;38661;53.152;5.846;2023-04-01T18:52:51;9.02;;;5.70;;
52786;SDS011;38661;53.152;5.846;2023-04-01T18:55:39;10.77;;;6.28;;
52786;SDS011;38661;53.152;5.846;2023-04-01T18:58:17;9.35;;;6.10;;
52786;SDS011;38661;53.152;5.846;2023-04-01T19:03:23;10.10;;;6.15;;
52786;SDS011;38661;53.152;5.846;2023-04-01T19:05:52;13.88;;;6.72;;
52786;SDS011;38661;53.152;5.846;2023-04-01T19:08:54;10.93;;;7.38;;
52786;SDS011;38661;53.152;5.846;2023-04-01T19:14:11;10.50;;;6.47;;
52786;SDS011;38661;53.152;5.846;2023-04-01T19:16:53;11.45;;;6.13;;
52786;SDS011;38661;53.152;5.846;2023-04-01T19:19:46;9.90;;;6.05;;
52786;SDS011;38661;53.152;5.846;2023-04-01T19:22:21;11.75;;;7.45;;
52786;SDS011;38661;53.152;5.846;2023-04-01T19:27:50;12.98;;;6.75;;
52786;SDS011;38661;53.152;5.846;2023-04-01T19:30:24;9.50;;;6.45;;
52786;SDS011;38661;53.152;5.846;2023-04-01T19:38:37;10.00;;;5.78;;
52786;SDS011;38661;53.152;5.846;2023-04-01T19:41:15;11.40;;;6.28;;
52786;SDS011;38661;53.152;5.846;2023-04-01T19:46:47;12.38;;;7.32;;
52786;SDS011;38661;53.152;5.846;2023-04-01T19:49:38;12.25;;;6.85;;
52786;SDS011;38661;53.152;5.846;2023-04-01T19:52:20;13.20;;;7.13;;
52786;SDS011;38661;53.152;5.846;2023-04-01T20:00:48;10.48;;;6.13;;
52786;SDS011;38661;53.152;5.846;2023-04-01T20:08:45;10.57;;;7.10;;
52786;SDS011;38661;53.152;5.846;2023-04-01T20:17:41;13.93;;;6.97;;
52786;SDS011;38661;53.152;5.846;2023-04-01T20:25:19;11.60;;;7.18;;
52786;SDS011;38661;53.152;5.846;2023-04-01T20:38:41;12.68;;;7.38;;
52786;SDS011;38661;53.152;5.846;2023-04-01T20:41:33;13.18;;;7.07;;
52786;SDS011;38661;53.152;5.846;2023-04-01T20:44:04;11.95;;;6.35;;
52786;SDS011;38661;53.152;5.846;2023-04-01T20:49:23;12.25;;;6.60;;
52786;SDS011;38661;53.152;5.846;2023-04-01T21:00:37;11.07;;;5.82;;
52786;SDS011;38661;53.152;5.846;2023-04-01T21:03:29;11.48;;;6.45;;
52786;SDS011;38661;53.152;5.846;2023-04-01T21:15:07;9.73;;;6.45;;
52786;SDS011;38661;53.152;5.846;2023-04-01T21:32:06;9.75;;;5.55;;
52786;SDS011;38661;53.152;5.846;2023-04-01T21:43:39;11.52;;;5.47;;
52786;SDS011;38661;53.152;5.846;2023-04-01T21:52:35;10.30;;;5.00;;
52786;SDS011;38661;53.152;5.846;2023-04-01T22:00:25;11.48;;;5.03;;
52786;SDS011;38661;53.152;5.846;2023-04-01T22:06:14;13.20;;;5.90;;
52786;SDS011;38661;53.152;5.846;2023-04-01T22:11:25;10.30;;;5.47;;
52786;SDS011;38661;53.152;5.846;2023-04-01T22:14:15;10.90;;;5.10;;
52786;SDS011;38661;53.152;5.846;2023-04-01T22:30:05;7.82;;;4.30;;
52786;SDS011;38661;53.152;5.846;2023-04-01T22:38:02;9.30;;;4.55;;
52786;SDS011;38661;53.152;5.846;2023-04-01T22:40:37;8.90;;;4.28;;
52786;SDS011;38661;53.152;5.846;2023-04-01T22:43:28;10.80;;;4.65;;
52786;SDS011;38661;53.152;5.846;2023-04-01T22:46:07;9.27;;;4.57;;
52786;SDS011;38661;53.152;5.846;2023-04-01T22:59:41;8.80;;;4.90;;
52786;SDS011;38661;53.152;5.846;2023-04-01T23:02:15;9.52;;;4.32;;
52786;SDS011;38661;53.152;5.846;2023-04-01T23:04:54;6.18;;;3.88;;
52786;SDS011;38661;53.152;5.846;2023-04-01T23:07:34;8.70;;;4.68;;
52786;SDS011;38661;53.152;5.846;2023-04-01T23:10:23;8.13;;;4.63;;
52786;SDS011;38661;53.152;5.846;2023-04-01T23:12:53;9.50;;;5.13;;
52786;SDS011;38661;53.152;5.846;2023-04-01T23:15:22;6.50;;;4.03;;
52786;SDS011;38661;53.152;5.846;2023-04-01T23:20:47;9.73;;;4.57;;
52786;SDS011;38661;53.152;5.846;2023-04-01T23:28:33;12.18;;;4.18;;
52786;SDS011;38661;53.152;5.846;2023-04-01T23:31:18;11.43;;;4.32;;
52786;SDS011;38661;53.152;5.846;2023-04-01T23:33:57;7.65;;;4.20;;
52786;SDS011;38661;53.152;5.846;2023-04-01T23:36:26;9.90;;;4.60;;
52786;SDS011;38661;53.152;5.846;2023-04-01T23:38:53;8.02;;;4.18;;
52786;SDS011;38661;53.152;5.846;2023-04-01T23:41:26;12.98;;;4.28;;
52786;SDS011;38661;53.152;5.846;2023-04-01T23:44:05;10.93;;;4.35;;
52786;SDS011;38661;53.152;5.846;2023-04-01T23:46:35;6.72;;;4.15;;
52786;SDS011;38661;53.152;5.846;2023-04-01T23:49:04;9.73;;;3.72;;
52786;SDS011;38661;53.152;5.846;2023-04-01T23:51:37;8.98;;;4.10;;
52786;SDS011;38661;53.152;5.846;2023-04-01T23:56:53;8.43;;;4.43;;
52786;SDS011;38661;53.152;5.846;2023-04-01T23:59:27;12.05;;;3.70;;
